Time;durP1;ratioP1;P1;durP2;ratioP2;P2;SDS_P1;SDS_P2;PMS_P1;PMS_P2;Temp;Humidity;BMP_temperature;BMP_pressure;BME280_temperature;BME280_humidity;BME280_pressure;Samples;Min_cycle;Max_cycle;Signal;HPM_P1;HPM_P2
2023/06/17 00:00:07;;;;;;;12.37;8.20;;;16.40;99.90;;;;;;4974097;28;20499;-73
2023/06/17 00:02:34;;;;;;;10.73;8.47;;;16.40;99.90;;;;;;4973579;28;20476;-72
2023/06/17 00:05:02;;;;;;;10.10;7.90;;;16.30;99.90;;;;;;4973744;28;20462;-73
2023/06/17 00:07:28;;;;;;;14.67;7.53;;;16.30;99.90;;;;;;4973877;28;20952;-73
2023/06/17 00:09:55;;;;;;;11.77;8.03;;;16.30;99.90;;;;;;4973522;28;20515;-73
2023/06/17 00:12:22;;;;;;;8.43;7.37;;;16.20;99.90;;;;;;4973056;28;20482;-73
2023/06/17 00:14:50;;;;;;;9.27;7.37;;;16.20;99.90;;;;;;4972693;28;20491;-72
2023/06/17 00:17:17;;;;;;;12.27;8.17;;;16.20;99.90;;;;;;4973238;28;20487;-72
2023/06/17 00:19:44;;;;;;;11.20;7.90;;;16.20;99.90;;;;;;4973390;28;20464;-73
2023/06/17 00:22:11;;;;;;;10.23;7.87;;;16.20;99.90;;;;;;4972871;28;20484;-73
2023/06/17 00:24:38;;;;;;;14.83;8.47;;;16.20;99.90;;;;;;4972764;28;20470;-73
2023/06/17 00:27:05;;;;;;;9.43;7.27;;;16.20;99.90;;;;;;4972535;28;20556;-73
2023/06/17 00:29:32;;;;;;;12.30;7.60;;;16.10;99.90;;;;;;4972913;28;20456;-72
2023/06/17 00:32:01;;;;;;;15.10;7.73;;;16.10;99.90;;;;;;4972665;28;20452;-73
2023/06/17 00:34:28;;;;;;;9.60;7.90;;;16.00;99.90;;;;;;4973330;28;20468;-72
2023/06/17 00:36:55;;;;;;;9.07;7.57;;;16.00;99.90;;;;;;4973143;28;20534;-72
2023/06/17 00:39:21;;;;;;;9.83;7.87;;;16.00;99.90;;;;;;4973192;28;20456;-73
2023/06/17 00:41:48;;;;;;;11.97;8.37;;;15.90;99.90;;;;;;4972961;28;20557;-73
2023/06/17 00:44:14;;;;;;;11.90;8.30;;;15.90;99.90;;;;;;4972598;28;20530;-73
2023/06/17 00:46:45;;;;;;;9.37;8.07;;;15.90;99.90;;;;;;4972296;28;20463;-73
2023/06/17 00:49:13;;;;;;;10.53;8.00;;;15.90;99.90;;;;;;4972388;28;20456;-73
2023/06/17 00:51:40;;;;;;;11.70;7.37;;;15.80;99.90;;;;;;4972139;28;20461;-73
2023/06/17 00:54:08;;;;;;;9.37;7.97;;;15.90;99.90;;;;;;4972589;28;20483;-73
2023/06/17 00:56:36;;;;;;;9.10;8.20;;;15.80;99.90;;;;;;4971778;28;20484;-73
2023/06/17 00:59:04;;;;;;;12.30;9.10;;;15.70;99.90;;;;;;4972477;28;20456;-73
2023/06/17 01:01:31;;;;;;;13.67;9.17;;;15.60;99.90;;;;;;4971909;28;20589;-73
2023/06/17 01:03:59;;;;;;;11.00;9.50;;;15.50;99.90;;;;;;4972337;28;20476;-73
2023/06/17 01:06:37;;;;;;;13.00;8.97;;;15.30;99.90;;;;;;4972335;28;20453;-73
2023/06/17 01:09:11;;;;;;;10.40;9.03;;;15.30;99.90;;;;;;4971618;28;20463;-73
2023/06/17 01:11:40;;;;;;;12.90;9.63;;;15.30;99.90;;;;;;4972054;28;20452;-73
2023/06/17 01:14:10;;;;;;;13.27;9.00;;;15.20;99.90;;;;;;4970802;28;20508;-73
2023/06/17 01:16:42;;;;;;;17.17;9.90;;;15.20;99.90;;;;;;4972154;28;20555;-73
2023/06/17 01:19:18;;;;;;;10.73;9.60;;;15.20;99.90;;;;;;4971444;28;20457;-73
2023/06/17 01:21:48;;;;;;;11.23;9.40;;;15.10;99.90;;;;;;4967968;28;20497;-73
2023/06/17 01:24:25;;;;;;;12.83;9.77;;;15.10;99.90;;;;;;4971504;28;20507;-73
2023/06/17 01:26:55;;;;;;;11.20;9.87;;;15.10;99.90;;;;;;4972115;28;20471;-73
2023/06/17 01:29:22;;;;;;;14.10;10.50;;;15.00;99.90;;;;;;4968179;28;20491;-73
2023/06/17 01:31:50;;;;;;;15.20;9.63;;;15.00;99.90;;;;;;4971476;28;20453;-73
2023/06/17 01:34:18;;;;;;;12.20;9.50;;;15.00;99.90;;;;;;4971878;28;20592;-73
2023/06/17 01:36:47;;;;;;;13.57;10.97;;;15.00;99.90;;;;;;4971608;28;20463;-73
2023/06/17 01:39:17;;;;;;;12.67;10.20;;;15.00;99.90;;;;;;4971666;28;21137;-72
2023/06/17 01:41:50;;;;;;;9.93;8.83;;;14.90;99.90;;;;;;4971573;28;20842;-74
2023/06/17 01:44:17;;;;;;;12.03;10.00;;;14.90;99.90;;;;;;4971975;28;20506;-73
2023/06/17 01:46:44;;;;;;;10.30;9.20;;;14.90;99.90;;;;;;4971712;28;20940;-73
2023/06/17 01:49:10;;;;;;;12.80;10.17;;;14.80;99.90;;;;;;4970319;28;20460;-73
2023/06/17 01:51:37;;;;;;;10.57;9.43;;;14.80;99.90;;;;;;4970877;28;20460;-73
2023/06/17 01:54:04;;;;;;;13.67;9.17;;;14.80;99.90;;;;;;4970493;28;20488;-73
2023/06/17 01:56:32;;;;;;;13.77;9.70;;;14.70;99.90;;;;;;4970922;28;20853;-73
2023/06/17 01:58:59;;;;;;;14.60;10.10;;;14.70;99.90;;;;;;4971361;28;20519;-73
2023/06/17 02:01:26;;;;;;;18.93;10.07;;;14.70;99.90;;;;;;4971035;28;20518;-73
2023/06/17 02:03:53;;;;;;;9.80;8.70;;;14.70;99.90;;;;;;4970812;28;20476;-73
2023/06/17 02:06:19;;;;;;;9.90;8.90;;;14.70;99.90;;;;;;4965626;28;20459;-73
2023/06/17 02:08:47;;;;;;;10.27;7.93;;;14.70;99.90;;;;;;4970829;28;20984;-73
2023/06/17 02:11:14;;;;;;;11.57;8.23;;;14.70;99.90;;;;;;4971244;28;20543;-73
2023/06/17 02:13:41;;;;;;;11.93;9.00;;;14.70;99.90;;;;;;4971077;28;20477;-73
2023/06/17 02:16:09;;;;;;;9.20;8.20;;;14.60;99.90;;;;;;4970705;28;20508;-73
2023/06/17 02:18:35;;;;;;;10.53;8.67;;;14.60;99.90;;;;;;4971482;28;20452;-73
2023/06/17 02:21:02;;;;;;;11.90;7.90;;;14.50;99.90;;;;;;4970330;28;20780;-73
2023/06/17 02:23:29;;;;;;;13.53;9.13;;;14.50;99.90;;;;;;4971188;28;20484;-73
2023/06/17 02:25:56;;;;;;;10.30;8.80;;;14.50;99.90;;;;;;4970495;28;20483;-73
2023/06/17 02:28:23;;;;;;;10.33;9.10;;;14.40;99.90;;;;;;4971012;28;20465;-73
2023/06/17 02:30:49;;;;;;;10.30;8.67;;;14.40;99.90;;;;;;4970564;28;20507;-73
2023/06/17 02:33:18;;;;;;;11.00;8.23;;;14.30;99.90;;;;;;4970748;28;20854;-73
2023/06/17 02:35:44;;;;;;;10.20;8.10;;;14.30;99.90;;;;;;4971331;28;20457;-73
2023/06/17 02:38:13;;;;;;;10.90;8.90;;;14.20;99.90;;;;;;4970807;28;20944;-73
2023/06/17 02:40:39;;;;;;;9.10;7.93;;;14.10;99.90;;;;;;4970589;28;20461;-73
2023/06/17 02:43:08;;;;;;;12.67;8.70;;;14.10;99.90;;;;;;4970401;28;20472;-73
2023/06/17 02:45:34;;;;;;;9.40;8.00;;;14.10;99.90;;;;;;4970670;28;20460;-73
2023/06/17 02:48:01;;;;;;;10.27;8.50;;;14.10;99.90;;;;;;4970972;28;20457;-73
2023/06/17 02:50:29;;;;;;;10.33;8.40;;;14.10;99.90;;;;;;4971138;28;20468;-73
2023/06/17 02:52:56;;;;;;;9.87;8.50;;;14.10;99.90;;;;;;4970008;28;20483;-72
2023/06/17 02:55:25;;;;;;;9.80;8.80;;;14.10;99.90;;;;;;4970686;28;20477;-72
2023/06/17 02:57:51;;;;;;;11.63;8.70;;;14.10;99.90;;;;;;4970717;28;20468;-73
2023/06/17 03:00:18;;;;;;;12.67;8.90;;;13.90;99.90;;;;;;4970254;28;20460;-73
2023/06/17 03:02:45;;;;;;;13.03;10.43;;;13.90;99.90;;;;;;4970300;28;20497;-73
2023/06/17 03:05:12;;;;;;;17.77;10.70;;;13.80;99.90;;;;;;4970932;28;20456;-73
2023/06/17 03:07:40;;;;;;;11.73;10.20;;;13.60;99.90;;;;;;4970176;28;20473;-73
2023/06/17 03:10:08;;;;;;;17.73;11.37;;;13.50;99.90;;;;;;4970683;28;20467;-73
2023/06/17 03:12:35;;;;;;;15.50;10.50;;;13.50;99.90;;;;;;4970414;28;20475;-73
2023/06/17 03:15:02;;;;;;;14.90;10.70;;;13.40;99.90;;;;;;4970905;28;20472;-73
2023/06/17 03:17:29;;;;;;;14.37;10.07;;;13.40;99.90;;;;;;4970626;28;20503;-73
2023/06/17 03:19:57;;;;;;;12.40;9.70;;;13.50;99.90;;;;;;4972968;28;20946;-73
2023/06/17 03:22:23;;;;;;;13.43;10.03;;;13.50;99.90;;;;;;4974115;28;21262;-73
2023/06/17 03:24:51;;;;;;;11.67;10.30;;;13.50;99.90;;;;;;4974323;28;20904;-73
2023/06/17 03:27:18;;;;;;;12.47;10.43;;;13.60;99.90;;;;;;4973826;28;20566;-73
2023/06/17 03:29:45;;;;;;;12.33;10.57;;;13.60;99.90;;;;;;4973727;28;20483;-73
2023/06/17 03:32:11;;;;;;;14.73;10.37;;;13.50;99.90;;;;;;4974009;28;20456;-73
2023/06/17 03:34:38;;;;;;;12.70;9.43;;;13.50;99.90;;;;;;4974130;28;20464;-73
2023/06/17 03:37:05;;;;;;;11.80;10.00;;;13.50;99.90;;;;;;4973192;28;20527;-73
2023/06/17 03:39:32;;;;;;;12.00;9.20;;;13.50;99.90;;;;;;4974123;28;20456;-73
2023/06/17 03:42:00;;;;;;;14.93;11.00;;;13.40;99.90;;;;;;4973488;28;20568;-72
2023/06/17 03:44:27;;;;;;;13.83;10.57;;;13.40;99.90;;;;;;4972810;28;20470;-73
2023/06/17 03:46:55;;;;;;;12.67;10.30;;;13.40;99.90;;;;;;4973778;28;20452;-73
2023/06/17 03:49:22;;;;;;;13.73;9.97;;;13.50;99.90;;;;;;4972997;28;20514;-73
2023/06/17 03:51:48;;;;;;;12.80;8.90;;;13.50;99.90;;;;;;4973976;28;20484;-73
2023/06/17 03:54:15;;;;;;;15.17;9.93;;;13.50;99.90;;;;;;4972925;28;20892;-73
2023/06/17 03:56:42;;;;;;;12.63;9.77;;;13.50;99.90;;;;;;4973490;28;20958;-73
2023/06/17 03:59:11;;;;;;;12.50;9.20;;;13.50;99.90;;;;;;4973606;28;20480;-73
2023/06/17 04:01:38;;;;;;;11.80;9.60;;;13.50;99.90;;;;;;4973187;28;21020;-73
2023/06/17 04:04:04;;;;;;;12.03;9.43;;;13.50;99.90;;;;;;4972764;28;20483;-73
2023/06/17 04:06:31;;;;;;;14.10;9.90;;;13.50;99.90;;;;;;4973850;28;20456;-73
2023/06/17 04:08:58;;;;;;;14.97;9.97;;;13.50;99.90;;;;;;4973258;28;20456;-73
2023/06/17 04:11:24;;;;;;;12.73;9.10;;;13.50;99.90;;;;;;4973147;28;20456;-73
2023/06/17 04:13:51;;;;;;;15.60;9.47;;;13.60;99.90;;;;;;4972523;28;20475;-73
2023/06/17 04:16:19;;;;;;;14.80;9.80;;;13.60;99.90;;;;;;4972937;28;20464;-73
2023/06/17 04:18:46;;;;;;;13.80;9.03;;;13.60;99.90;;;;;;4973188;28;20456;-73
2023/06/17 04:21:13;;;;;;;11.47;9.23;;;13.80;99.90;;;;;;4971392;28;20980;-73
2023/06/17 04:23:40;;;;;;;18.20;9.90;;;13.80;99.90;;;;;;4967533;28;20543;-73
2023/06/17 04:26:07;;;;;;;12.43;9.20;;;13.80;99.90;;;;;;4972691;28;20461;-73
2023/06/17 04:28:34;;;;;;;11.93;9.60;;;13.90;99.90;;;;;;4972864;28;20471;-73
2023/06/17 04:31:02;;;;;;;14.60;9.90;;;13.90;99.90;;;;;;4971784;28;20580;-72
2023/06/17 04:33:31;;;;;;;14.57;9.00;;;14.00;99.90;;;;;;4972861;28;21046;-73
2023/06/17 04:35:57;;;;;;;16.97;9.47;;;14.00;99.90;;;;;;4973166;28;20458;-73
2023/06/17 04:38:24;;;;;;;15.80;9.93;;;14.10;99.90;;;;;;4972100;28;20460;-73
2023/06/17 04:40:52;;;;;;;10.87;8.70;;;14.20;99.90;;;;;;4971896;28;20467;-73
2023/06/17 04:43:20;;;;;;;14.50;9.83;;;14.30;99.90;;;;;;4972124;28;20538;-73
2023/06/17 04:45:47;;;;;;;12.60;9.50;;;14.40;99.90;;;;;;4968225;28;20980;-73
2023/06/17 04:48:14;;;;;;;11.10;9.83;;;14.50;99.90;;;;;;4972387;28;20506;-73
2023/06/17 04:50:43;;;;;;;11.13;9.33;;;14.60;99.90;;;;;;4965883;28;21153;-73
2023/06/17 04:53:10;;;;;;;12.33;9.33;;;14.60;99.90;;;;;;4971500;28;21217;-74
2023/06/17 04:55:37;;;;;;;12.77;9.10;;;14.70;99.90;;;;;;4972555;28;20476;-73
2023/06/17 04:58:04;;;;;;;12.53;10.70;;;14.80;99.90;;;;;;4972348;28;20518;-73
2023/06/17 05:00:31;;;;;;;15.17;10.90;;;14.90;99.90;;;;;;4972316;28;20834;-74
2023/06/17 05:02:58;;;;;;;16.33;11.47;;;14.90;99.90;;;;;;4972203;28;20559;-73
2023/06/17 05:05:25;;;;;;;15.47;10.73;;;14.90;99.90;;;;;;4972235;28;20487;-73
2023/06/17 05:07:52;;;;;;;19.77;11.47;;;14.90;99.90;;;;;;4972184;28;20957;-74
2023/06/17 05:10:19;;;;;;;16.47;12.20;;;14.90;99.90;;;;;;4971864;28;20512;-73
2023/06/17 05:12:46;;;;;;;16.07;12.10;;;14.90;99.90;;;;;;4972151;28;21213;-74
2023/06/17 05:15:13;;;;;;;15.40;11.13;;;15.00;99.90;;;;;;4971958;28;20461;-74
2023/06/17 05:17:39;;;;;;;20.63;11.67;;;15.10;99.90;;;;;;4972160;28;20464;-74
2023/06/17 05:20:07;;;;;;;15.07;12.13;;;15.20;99.90;;;;;;4972040;28;20457;-74
2023/06/17 05:22:34;;;;;;;17.77;12.53;;;15.20;99.90;;;;;;4968481;28;21199;-72
2023/06/17 05:25:02;;;;;;;17.50;12.17;;;15.30;99.90;;;;;;4972178;28;20457;-73
2023/06/17 05:27:29;;;;;;;18.57;11.90;;;15.40;99.90;;;;;;4971618;28;20961;-73
2023/06/17 05:29:55;;;;;;;19.33;11.70;;;15.50;99.90;;;;;;4971435;28;20948;-72
2023/06/17 05:32:22;;;;;;;18.13;11.17;;;15.60;99.90;;;;;;4971264;28;20475;-73
2023/06/17 05:34:49;;;;;;;8.40;7.50;;;15.80;99.90;;;;;;4972421;28;21092;-73
2023/06/17 05:37:16;;;;;;;15.23;9.40;;;16.00;99.90;;;;;;4970960;28;21003;-73
2023/06/17 05:39:42;;;;;;;9.43;8.43;;;16.30;99.90;;;;;;4971463;28;20456;-73
2023/06/17 05:42:12;;;;;;;12.23;8.97;;;16.60;99.90;;;;;;4973261;28;20485;-73
2023/06/17 05:44:39;;;;;;;12.40;8.93;;;16.90;99.90;;;;;;4971512;28;20492;-73
2023/06/17 05:47:06;;;;;;;10.67;7.87;;;17.20;99.90;;;;;;4971519;28;20464;-73
2023/06/17 05:49:33;;;;;;;14.93;8.53;;;17.60;99.90;;;;;;4971597;28;20493;-73
2023/06/17 05:51:59;;;;;;;8.40;7.30;;;17.90;99.90;;;;;;4971469;28;20847;-73
2023/06/17 05:54:26;;;;;;;14.23;10.00;;;18.20;99.90;;;;;;4971206;28;20460;-73
2023/06/17 05:56:52;;;;;;;14.10;10.90;;;18.50;99.90;;;;;;4970997;28;20475;-73
2023/06/17 05:59:21;;;;;;;14.80;10.23;;;18.60;99.90;;;;;;4971399;28;20431;-74
2023/06/17 06:01:47;;;;;;;15.30;9.80;;;18.40;99.90;;;;;;4969847;28;20490;-74
2023/06/17 06:04:14;;;;;;;14.23;9.07;;;18.30;99.90;;;;;;4970327;28;20860;-73
2023/06/17 06:06:41;;;;;;;15.80;12.30;;;18.30;99.90;;;;;;4971435;28;20474;-73
2023/06/17 06:09:07;;;;;;;17.80;11.30;;;18.60;99.90;;;;;;4970628;28;20463;-74
2023/06/17 06:11:34;;;;;;;13.50;11.87;;;18.60;99.90;;;;;;4970242;28;20673;-74
2023/06/17 06:14:01;;;;;;;14.60;11.50;;;18.60;99.90;;;;;;4971220;28;20446;-73
2023/06/17 06:16:29;;;;;;;14.83;11.40;;;18.50;99.90;;;;;;4970423;28;20442;-73
2023/06/17 06:18:55;;;;;;;16.23;11.67;;;18.60;99.90;;;;;;4970792;28;20435;-73
2023/06/17 06:21:22;;;;;;;13.80;10.20;;;18.70;99.90;;;;;;4970829;28;20844;-73
2023/06/17 06:23:49;;;;;;;17.80;11.77;;;18.90;99.90;;;;;;4970981;28;20521;-73
2023/06/17 06:26:15;;;;;;;14.50;11.70;;;19.10;99.90;;;;;;4970184;28;20456;-73
2023/06/17 06:28:42;;;;;;;14.27;10.80;;;19.20;99.90;;;;;;4970811;28;20999;-73
2023/06/17 06:31:10;;;;;;;12.80;11.27;;;19.30;99.90;;;;;;4969702;28;20430;-73
2023/06/17 06:33:38;;;;;;;13.97;10.93;;;19.40;99.90;;;;;;4971100;28;20451;-73
2023/06/17 06:36:05;;;;;;;14.57;10.30;;;19.40;99.90;;;;;;4970932;28;20958;-73
2023/06/17 06:38:31;;;;;;;13.20;10.50;;;19.30;99.90;;;;;;4967385;28;20526;-73
2023/06/17 06:40:58;;;;;;;12.40;9.60;;;19.40;99.90;;;;;;4968101;28;20939;-73
2023/06/17 06:43:25;;;;;;;16.57;10.30;;;19.60;99.90;;;;;;4969306;28;20470;-73
2023/06/17 06:45:51;;;;;;;12.03;10.73;;;19.70;99.90;;;;;;4964879;28;20858;-72
2023/06/17 06:48:18;;;;;;;15.53;9.67;;;20.00;99.90;;;;;;4964804;28;20439;-74
2023/06/17 06:50:46;;;;;;;14.40;10.07;;;20.20;99.90;;;;;;4966113;28;20515;-73
2023/06/17 06:53:12;;;;;;;20.80;8.63;;;20.30;99.90;;;;;;4965400;28;21034;-73
2023/06/17 06:55:39;;;;;;;11.70;9.40;;;20.40;99.90;;;;;;4969461;28;20545;-73
2023/06/17 06:58:06;;;;;;;13.07;9.90;;;20.50;99.90;;;;;;4969511;28;20493;-73
2023/06/17 07:00:32;;;;;;;10.77;9.40;;;20.40;99.90;;;;;;4968069;28;20510;-73
2023/06/17 07:02:59;;;;;;;14.23;9.00;;;20.20;99.90;;;;;;4969660;28;21019;-75
2023/06/17 07:05:26;;;;;;;14.00;9.10;;;20.20;99.90;;;;;;4970244;28;20501;-73
2023/06/17 07:07:54;;;;;;;14.27;9.47;;;20.10;99.90;;;;;;4970320;28;20487;-74
2023/06/17 07:10:21;;;;;;;13.03;9.10;;;19.90;99.90;;;;;;4969631;28;20427;-73
2023/06/17 07:12:47;;;;;;;14.77;8.97;;;19.90;99.90;;;;;;4969454;28;20438;-73
2023/06/17 07:15:14;;;;;;;11.83;8.20;;;20.10;99.90;;;;;;4969418;28;20451;-74
2023/06/17 07:17:41;;;;;;;14.70;8.40;;;20.40;99.90;;;;;;4970433;28;20546;-75
2023/06/17 07:20:08;;;;;;;10.73;8.83;;;20.80;99.90;;;;;;4970641;28;20481;-74
2023/06/17 07:22:35;;;;;;;10.60;9.00;;;21.10;99.90;;;;;;4969850;28;20483;-74
2023/06/17 07:25:03;;;;;;;13.03;7.77;;;21.40;99.90;;;;;;4969496;28;20514;-74
2023/06/17 07:27:29;;;;;;;9.60;7.97;;;21.50;99.90;;;;;;4969246;28;20472;-73
2023/06/17 07:29:56;;;;;;;12.57;8.97;;;21.60;99.90;;;;;;4969313;28;20501;-74
2023/06/17 07:32:23;;;;;;;11.70;8.97;;;21.90;99.90;;;;;;4968884;28;20567;-74
2023/06/17 07:34:50;;;;;;;11.93;8.77;;;22.10;99.90;;;;;;4969661;28;20514;-74
2023/06/17 07:37:17;;;;;;;9.83;8.40;;;22.30;99.90;;;;;;4968732;28;20459;-73
2023/06/17 07:39:46;;;;;;;13.10;8.60;;;22.50;99.90;;;;;;4970176;28;20522;-73
2023/06/17 07:42:15;;;;;;;16.10;8.40;;;22.70;99.90;;;;;;4969277;28;20538;-74
2023/06/17 07:44:42;;;;;;;10.67;8.57;;;22.90;99.90;;;;;;4970040;28;20460;-73
2023/06/17 07:47:09;;;;;;;9.53;8.30;;;23.10;99.90;;;;;;4969669;28;20664;-73
2023/06/17 07:49:36;;;;;;;12.43;9.03;;;23.40;99.90;;;;;;4968382;28;20487;-73
2023/06/17 07:52:03;;;;;;;9.60;8.17;;;23.30;99.90;;;;;;4968900;28;20868;-73
2023/06/17 07:54:30;;;;;;;18.60;8.13;;;23.50;99.90;;;;;;4969232;28;20518;-73
2023/06/17 07:56:57;;;;;;;10.03;8.43;;;23.60;99.90;;;;;;4969402;28;20452;-73
2023/06/17 07:59:25;;;;;;;9.63;8.53;;;23.60;99.90;;;;;;4969672;28;20973;-73
2023/06/17 08:01:52;;;;;;;12.40;8.33;;;23.80;99.90;;;;;;4969314;28;20452;-71
2023/06/17 08:04:18;;;;;;;10.90;8.20;;;23.80;99.90;;;;;;4968995;28;21000;-73
2023/06/17 08:06:45;;;;;;;9.80;8.57;;;23.80;99.90;;;;;;4968410;28;20464;-73
2023/06/17 08:09:12;;;;;;;11.83;8.40;;;23.80;99.90;;;;;;4969606;28;20576;-72
2023/06/17 08:11:38;;;;;;;10.90;8.93;;;23.90;99.90;;;;;;4969078;28;20460;-72
2023/06/17 08:14:05;;;;;;;12.00;7.67;;;24.10;99.90;;;;;;4969395;28;20546;-72
2023/06/17 08:16:33;;;;;;;10.87;8.13;;;24.60;99.90;;;;;;4968574;28;20505;-74
2023/06/17 08:19:00;;;;;;;10.53;7.87;;;24.70;99.90;;;;;;4969050;28;20491;-71
2023/06/17 08:21:27;;;;;;;9.77;8.13;;;24.70;99.90;;;;;;4967911;28;21025;-72
2023/06/17 08:23:54;;;;;;;8.27;7.30;;;24.80;99.90;;;;;;4967644;28;20491;-73
2023/06/17 08:26:20;;;;;;;19.03;7.83;;;25.00;99.90;;;;;;4968184;28;20933;-73
2023/06/17 08:28:47;;;;;;;9.70;7.30;;;25.20;99.90;;;;;;4968753;28;20460;-73
2023/06/17 08:31:14;;;;;;;10.53;7.40;;;25.40;99.90;;;;;;4967892;28;20473;-73
2023/06/17 08:33:42;;;;;;;10.77;7.47;;;25.60;99.90;;;;;;4968278;28;20475;-73
2023/06/17 08:36:08;;;;;;;11.87;7.10;;;25.50;99.90;;;;;;4968377;28;20448;-73
2023/06/17 08:38:35;;;;;;;10.10;6.97;;;25.60;99.90;;;;;;4968949;28;20456;-73
2023/06/17 08:41:01;;;;;;;9.03;7.50;;;25.50;99.90;;;;;;4969175;28;20452;-74
2023/06/17 08:43:29;;;;;;;13.33;8.10;;;25.50;99.90;;;;;;4967579;28;20487;-74
2023/06/17 08:45:58;;;;;;;12.80;7.60;;;25.70;99.90;;;;;;4967376;28;21177;-74
2023/06/17 08:48:24;;;;;;;11.17;6.90;;;25.80;99.90;;;;;;4967097;28;20980;-74
2023/06/17 08:50:54;;;;;;;8.30;7.17;;;25.90;99.90;;;;;;4967454;28;20475;-74
2023/06/17 08:53:20;;;;;;;12.50;7.20;;;26.00;99.90;;;;;;4967461;28;20475;-74
2023/06/17 08:55:48;;;;;;;10.60;6.90;;;26.10;99.90;;;;;;4968094;28;20479;-74
2023/06/17 08:58:14;;;;;;;11.90;5.93;;;26.20;99.90;;;;;;4967801;28;20521;-74
2023/06/17 09:00:41;;;;;;;10.07;5.53;;;26.50;99.90;;;;;;4967976;28;20456;-73
2023/06/17 09:03:09;;;;;;;5.63;5.00;;;26.70;99.90;;;;;;4967310;28;20483;-73
2023/06/17 09:05:36;;;;;;;7.47;5.40;;;27.00;99.90;;;;;;4968162;28;20556;-73
2023/06/17 09:08:04;;;;;;;5.63;4.87;;;27.30;99.90;;;;;;4968441;28;20456;-73
2023/06/17 09:10:42;;;;;;;9.77;5.17;;;27.60;99.90;;;;;;4967950;28;20453;-73
2023/06/17 09:13:09;;;;;;;9.43;4.77;;;27.90;99.90;;;;;;4967897;28;20483;-73
2023/06/17 09:15:39;;;;;;;5.97;4.53;;;28.30;99.40;;;;;;4967438;28;20923;-75
2023/06/17 09:18:07;;;;;;;6.53;5.00;;;28.40;99.00;;;;;;4967516;28;20452;-75
2023/06/17 09:20:33;;;;;;;5.23;4.60;;;28.60;98.60;;;;;;4967719;28;20459;-75
2023/06/17 09:23:00;;;;;;;6.20;5.50;;;28.60;96.80;;;;;;4967381;28;20980;-75
2023/06/17 09:25:28;;;;;;;6.37;5.40;;;28.80;96.70;;;;;;4967035;28;20465;-75
2023/06/17 09:27:55;;;;;;;4.87;4.43;;;28.80;96.20;;;;;;4966723;28;20981;-75
2023/06/17 09:30:22;;;;;;;7.80;4.80;;;28.90;95.50;;;;;;4965917;28;20837;-74
2023/06/17 09:32:51;;;;;;;6.20;4.80;;;29.20;95.30;;;;;;4966078;28;20825;-75
2023/06/17 09:35:18;;;;;;;6.17;5.00;;;29.30;94.20;;;;;;4965627;28;20452;-74
2023/06/17 09:37:49;;;;;;;6.90;5.50;;;29.40;94.70;;;;;;4966778;28;20515;-75
2023/06/17 09:40:16;;;;;;;7.43;4.83;;;29.60;93.20;;;;;;4966310;28;20964;-75
2023/06/17 09:42:46;;;;;;;7.03;5.67;;;29.40;92.50;;;;;;4965859;28;20480;-69
2023/06/17 09:45:23;;;;;;;7.73;4.83;;;29.20;92.40;;;;;;4966609;28;20498;-73
2023/06/17 09:47:52;;;;;;;8.37;5.67;;;29.20;91.00;;;;;;4966413;28;20459;-75
2023/06/17 09:50:20;;;;;;;5.43;4.73;;;28.90;91.10;;;;;;4966538;28;20702;-74
2023/06/17 09:52:48;;;;;;;14.73;5.00;;;28.90;92.40;;;;;;4967470;28;20483;-72
2023/06/17 09:55:15;;;;;;;5.80;4.43;;;29.10;92.30;;;;;;4967328;28;20503;-72
2023/06/17 09:57:44;;;;;;;5.83;5.00;;;29.20;91.00;;;;;;4967219;28;20456;-73
2023/06/17 10:00:14;;;;;;;7.43;4.87;;;29.10;89.60;;;;;;4966266;28;20464;-73
2023/06/17 10:02:41;;;;;;;7.73;5.23;;;29.10;90.20;;;;;;4966314;28;20480;-73
2023/06/17 10:05:10;;;;;;;6.37;4.77;;;29.10;90.80;;;;;;4967814;28;20488;-72
2023/06/17 10:07:38;;;;;;;6.17;4.57;;;29.20;91.00;;;;;;4966750;28;20461;-72
2023/06/17 10:10:08;;;;;;;7.37;4.47;;;29.40;90.60;;;;;;4967799;28;20452;-72
2023/06/17 10:12:37;;;;;;;7.03;5.80;;;29.60;89.30;;;;;;4969370;28;20488;-72
2023/06/17 10:15:07;;;;;;;7.43;4.63;;;29.70;90.00;;;;;;4971497;28;20338;-73
2023/06/17 10:17:35;;;;;;;8.60;5.03;;;29.70;89.50;;;;;;4971798;28;20212;-74
2023/06/17 10:20:06;;;;;;;9.30;5.10;;;29.80;88.30;;;;;;4971939;28;20452;-73
2023/06/17 10:22:37;;;;;;;6.73;4.87;;;29.90;87.70;;;;;;4971241;28;20486;-73
2023/06/17 10:25:05;;;;;;;9.53;5.47;;;29.90;88.00;;;;;;4971521;28;20492;-73
2023/06/17 10:27:32;;;;;;;8.63;4.90;;;29.90;88.90;;;;;;4970744;28;20510;-73
2023/06/17 10:29:59;;;;;;;10.73;4.67;;;30.10;88.30;;;;;;4970613;28;20466;-73
2023/06/17 10:32:27;;;;;;;8.73;4.83;;;29.90;85.80;;;;;;4970938;28;20514;-73
2023/06/17 10:35:13;;;;;;;6.13;4.90;;;29.60;85.60;;;;;;4971455;28;21012;-74
2023/06/17 10:37:42;;;;;;;5.00;4.60;;;29.50;86.60;;;;;;4971446;28;20455;-74
2023/06/17 10:40:22;;;;;;;7.20;4.63;;;29.60;84.80;;;;;;4971362;28;20464;-74
2023/06/17 10:43:16;;;;;;;7.03;5.00;;;29.70;83.60;;;;;;4970996;28;21012;-74
2023/06/17 10:45:52;;;;;;;8.17;4.33;;;29.90;82.30;;;;;;4971196;28;20448;-73
2023/06/17 10:48:25;;;;;;;9.20;5.03;;;30.10;85.70;;;;;;4970863;28;20541;-77
2023/06/17 10:50:56;;;;;;;6.80;5.10;;;29.90;84.10;;;;;;4971451;28;20236;-76
2023/06/17 10:53:28;;;;;;;5.77;5.23;;;29.70;86.80;;;;;;4970222;28;20590;-75
2023/06/17 10:55:56;;;;;;;8.23;4.70;;;29.70;84.10;;;;;;4971175;28;20494;-74
2023/06/17 10:58:22;;;;;;;7.10;4.97;;;30.00;86.10;;;;;;4970834;28;20510;-74
2023/06/17 11:00:59;;;;;;;6.60;4.50;;;30.40;84.70;;;;;;4963131;28;20866;-73
2023/06/17 11:03:27;;;;;;;6.40;5.03;;;30.60;84.00;;;;;;4971007;28;20307;-74
2023/06/17 11:05:54;;;;;;;5.60;5.00;;;30.80;84.70;;;;;;4971568;28;20455;-74
2023/06/17 11:08:20;;;;;;;10.17;5.40;;;30.50;81.30;;;;;;4970143;28;20467;-74
2023/06/17 11:10:47;;;;;;;12.23;5.40;;;30.10;85.20;;;;;;4971282;28;20810;-74
2023/06/17 11:13:13;;;;;;;6.77;5.40;;;29.50;84.40;;;;;;4970823;28;20480;-74
2023/06/17 11:15:40;;;;;;;5.85;4.82;;;29.20;86.30;;;;;;4970138;28;20480;-74
2023/06/17 11:18:07;;;;;;;6.93;5.30;;;29.40;88.80;;;;;;4970968;28;20264;-73
2023/06/17 11:20:35;;;;;;;5.80;5.07;;;29.70;84.00;;;;;;4970382;28;20464;-74
2023/06/17 11:23:03;;;;;;;6.13;5.40;;;30.10;84.50;;;;;;4970434;28;20479;-75
2023/06/17 11:25:30;;;;;;;9.40;5.87;;;30.40;83.20;;;;;;4971029;28;20491;-76
2023/06/17 11:27:57;;;;;;;6.73;5.10;;;30.80;83.40;;;;;;4971240;28;21324;-76
2023/06/17 11:30:26;;;;;;;6.03;5.40;;;31.10;78.90;;;;;;4970286;28;20510;-75
2023/06/17 11:32:52;;;;;;;15.43;5.50;;;31.10;79.30;;;;;;4969759;28;20892;-73
2023/06/17 11:35:20;;;;;;;6.10;5.10;;;31.20;82.40;;;;;;4969473;28;20834;-73
2023/06/17 11:37:49;;;;;;;8.43;5.23;;;30.90;78.40;;;;;;4970134;28;20801;-73
2023/06/17 11:40:17;;;;;;;7.00;5.20;;;30.60;79.00;;;;;;4968056;28;20948;-74
2023/06/17 11:42:44;;;;;;;8.67;4.90;;;30.60;78.70;;;;;;4973072;28;20985;-73
2023/06/17 11:45:11;;;;;;;6.27;5.23;;;30.70;80.70;;;;;;4973424;28;20550;-73
2023/06/17 11:47:37;;;;;;;5.80;5.20;;;30.70;79.80;;;;;;4973592;28;20463;-73
2023/06/17 11:50:06;;;;;;;7.13;5.50;;;30.70;80.10;;;;;;4973894;28;20475;-74
2023/06/17 11:52:33;;;;;;;6.53;5.80;;;30.40;80.30;;;;;;4972995;28;20480;-75
2023/06/17 11:55:02;;;;;;;8.00;6.07;;;30.60;81.90;;;;;;4973661;28;21015;-74
2023/06/17 11:57:29;;;;;;;9.77;5.23;;;30.60;80.20;;;;;;4972816;28;20968;-75
2023/06/17 12:00:03;;;;;;;6.53;5.70;;;30.90;80.30;;;;;;4973362;28;20515;-75
2023/06/17 12:02:30;;;;;;;5.10;4.60;;;30.90;79.30;;;;;;4972547;28;20518;-76
2023/06/17 12:05:01;;;;;;;6.30;5.13;;;30.50;78.70;;;;;;4973461;28;20483;-74
2023/06/17 12:07:28;;;;;;;9.17;5.10;;;30.30;79.00;;;;;;4973520;28;20455;-73
2023/06/17 12:09:56;;;;;;;13.20;5.00;;;30.20;80.40;;;;;;4973487;28;20499;-73
2023/06/17 12:12:29;;;;;;;9.67;5.10;;;30.30;79.20;;;;;;4972414;28;20468;-74
2023/06/17 12:15:01;;;;;;;8.90;5.00;;;30.70;79.00;;;;;;4973150;28;20948;-74
2023/06/17 12:17:27;;;;;;;8.00;5.17;;;31.10;77.80;;;;;;4973500;28;20801;-73
2023/06/17 12:20:00;;;;;;;7.30;5.00;;;31.10;78.70;;;;;;4972327;28;20456;-74
2023/06/17 12:22:27;;;;;;;7.73;4.93;;;30.90;76.60;;;;;;4971559;28;20490;-75
2023/06/17 12:24:54;;;;;;;10.20;4.93;;;30.90;77.60;;;;;;4970923;28;20579;-75
2023/06/17 12:27:29;;;;;;;5.13;4.50;;;31.10;76.60;;;;;;4972924;28;20499;-75
2023/06/17 12:29:57;;;;;;;6.70;5.20;;;30.90;73.50;;;;;;4973087;28;20451;-73
2023/06/17 12:32:23;;;;;;;5.50;4.60;;;30.80;74.10;;;;;;4970522;28;20463;-70
2023/06/17 12:34:51;;;;;;;5.53;4.77;;;31.00;73.40;;;;;;4973504;28;20515;-73
2023/06/17 12:37:21;;;;;;;5.00;4.60;;;31.10;72.30;;;;;;4973576;28;20531;-74
2023/06/17 12:39:48;;;;;;;7.53;5.20;;;31.30;73.70;;;;;;4972883;28;20908;-74